sensor_id;sensor_type;location;lat;lon;timestamp;P1;durP1;ratioP1;P2;durP2;ratioP2
19358;SDS011;9815;52.334;20.890;2024-03-02T00:02:00;58.83;;;27.80;;
19358;SDS011;9815;52.334;20.890;2024-03-02T00:04:28;61.03;;;28.30;;
19358;SDS011;9815;52.334;20.890;2024-03-02T00:06:59;55.87;;;27.77;;
19358;SDS011;9815;52.334;20.890;2024-03-02T00:09:28;58.87;;;27.33;;
19358;SDS011;9815;52.334;20.890;2024-03-02T00:11:57;59.87;;;28.27;;
19358;SDS011;9815;52.334;20.890;2024-03-02T00:14:29;55.30;;;26.37;;
19358;SDS011;9815;52.334;20.890;2024-03-02T00:16:58;55.33;;;27.57;;
19358;SDS011;9815;52.334;20.890;2024-03-02T00:19:27;55.93;;;27.97;;
19358;SDS011;9815;52.334;20.890;2024-03-02T00:21:56;60.87;;;27.63;;
19358;SDS011;9815;52.334;20.890;2024-03-02T00:24:30;60.23;;;28.27;;
19358;SDS011;9815;52.334;20.890;2024-03-02T00:27:01;55.57;;;27.83;;
19358;SDS011;9815;52.334;20.890;2024-03-02T00:29:39;52.27;;;27.57;;
19358;SDS011;9815;52.334;20.890;2024-03-02T00:32:10;60.17;;;27.03;;
19358;SDS011;9815;52.334;20.890;2024-03-02T00:34:41;60.10;;;27.37;;
19358;SDS011;9815;52.334;20.890;2024-03-02T00:37:10;61.27;;;27.10;;
19358;SDS011;9815;52.334;20.890;2024-03-02T00:39:39;58.87;;;27.70;;
19358;SDS011;9815;52.334;20.890;2024-03-02T00:42:08;56.63;;;27.23;;
19358;SDS011;9815;52.334;20.890;2024-03-02T00:44:41;54.20;;;26.97;;
19358;SDS011;9815;52.334;20.890;2024-03-02T00:47:10;57.43;;;27.20;;
19358;SDS011;9815;52.334;20.890;2024-03-02T00:49:39;56.77;;;27.50;;
19358;SDS011;9815;52.334;20.890;2024-03-02T00:52:08;57.57;;;27.80;;
19358;SDS011;9815;52.334;20.890;2024-03-02T00:54:37;58.13;;;27.20;;
19358;SDS011;9815;52.334;20.890;2024-03-02T00:57:07;58.50;;;26.57;;
19358;SDS011;9815;52.334;20.890;2024-03-02T00:59:40;55.27;;;26.20;;
19358;SDS011;9815;52.334;20.890;2024-03-02T01:02:12;61.30;;;28.30;;
19358;SDS011;9815;52.334;20.890;2024-03-02T01:04:40;55.10;;;26.73;;
19358;SDS011;9815;52.334;20.890;2024-03-02T01:07:09;56.27;;;27.10;;
19358;SDS011;9815;52.334;20.890;2024-03-02T01:09:38;61.60;;;26.97;;
19358;SDS011;9815;52.334;20.890;2024-03-02T01:12:08;57.17;;;27.63;;
19358;SDS011;9815;52.334;20.890;2024-03-02T01:14:36;61.73;;;28.07;;
19358;SDS011;9815;52.334;20.890;2024-03-02T01:17:07;61.83;;;28.80;;
19358;SDS011;9815;52.334;20.890;2024-03-02T01:19:35;60.10;;;29.27;;
19358;SDS011;9815;52.334;20.890;2024-03-02T01:22:05;61.27;;;26.77;;
19358;SDS011;9815;52.334;20.890;2024-03-02T01:24:33;56.50;;;26.80;;
19358;SDS011;9815;52.334;20.890;2024-03-02T01:27:02;53.33;;;26.53;;
19358;SDS011;9815;52.334;20.890;2024-03-02T01:29:31;53.93;;;25.70;;
19358;SDS011;9815;52.334;20.890;2024-03-02T01:32:00;53.97;;;27.67;;
19358;SDS011;9815;52.334;20.890;2024-03-02T01:34:30;58.63;;;26.17;;
19358;SDS011;9815;52.334;20.890;2024-03-02T01:36:59;54.00;;;27.60;;
19358;SDS011;9815;52.334;20.890;2024-03-02T01:39:28;57.60;;;26.07;;
19358;SDS011;9815;52.334;20.890;2024-03-02T01:41:57;54.43;;;26.20;;
19358;SDS011;9815;52.334;20.890;2024-03-02T01:44:26;59.70;;;27.37;;
19358;SDS011;9815;52.334;20.890;2024-03-02T01:46:54;56.57;;;27.30;;
19358;SDS011;9815;52.334;20.890;2024-03-02T01:49:23;49.17;;;26.77;;
19358;SDS011;9815;52.334;20.890;2024-03-02T01:51:53;65.00;;;28.40;;
19358;SDS011;9815;52.334;20.890;2024-03-02T01:54:22;65.00;;;30.13;;
19358;SDS011;9815;52.334;20.890;2024-03-02T01:56:51;65.60;;;29.60;;
19358;SDS011;9815;52.334;20.890;2024-03-02T01:59:22;63.07;;;30.83;;
19358;SDS011;9815;52.334;20.890;2024-03-02T02:01:51;64.97;;;30.97;;
19358;SDS011;9815;52.334;20.890;2024-03-02T02:04:20;67.90;;;32.43;;
19358;SDS011;9815;52.334;20.890;2024-03-02T02:06:55;66.37;;;31.50;;
19358;SDS011;9815;52.334;20.890;2024-03-02T02:09:24;64.97;;;31.43;;
19358;SDS011;9815;52.334;20.890;2024-03-02T02:11:53;67.00;;;29.87;;
19358;SDS011;9815;52.334;20.890;2024-03-02T02:14:23;59.67;;;29.33;;
19358;SDS011;9815;52.334;20.890;2024-03-02T02:16:52;58.13;;;28.70;;
19358;SDS011;9815;52.334;20.890;2024-03-02T02:19:21;56.77;;;26.83;;
19358;SDS011;9815;52.334;20.890;2024-03-02T02:21:51;57.60;;;27.90;;
19358;SDS011;9815;52.334;20.890;2024-03-02T02:24:20;64.13;;;28.20;;
19358;SDS011;9815;52.334;20.890;2024-03-02T02:26:50;55.27;;;27.53;;
19358;SDS011;9815;52.334;20.890;2024-03-02T02:29:20;55.27;;;26.57;;
19358;SDS011;9815;52.334;20.890;2024-03-02T02:31:48;60.87;;;27.13;;
19358;SDS011;9815;52.334;20.890;2024-03-02T02:34:17;57.93;;;26.67;;
19358;SDS011;9815;52.334;20.890;2024-03-02T02:36:46;48.53;;;26.03;;
19358;SDS011;9815;52.334;20.890;2024-03-02T02:39:16;51.10;;;26.50;;
19358;SDS011;9815;52.334;20.890;2024-03-02T02:41:48;54.07;;;25.97;;
19358;SDS011;9815;52.334;20.890;2024-03-02T02:44:17;51.07;;;25.90;;
19358;SDS011;9815;52.334;20.890;2024-03-02T02:46:46;53.30;;;26.13;;
19358;SDS011;9815;52.334;20.890;2024-03-02T02:49:15;47.90;;;26.17;;
19358;SDS011;9815;52.334;20.890;2024-03-02T02:51:44;57.67;;;26.10;;
19358;SDS011;9815;52.334;20.890;2024-03-02T02:54:13;52.27;;;26.10;;
19358;SDS011;9815;52.334;20.890;2024-03-02T02:56:43;60.40;;;27.27;;
19358;SDS011;9815;52.334;20.890;2024-03-02T02:59:11;48.97;;;25.63;;
19358;SDS011;9815;52.334;20.890;2024-03-02T03:01:40;53.73;;;25.77;;
19358;SDS011;9815;52.334;20.890;2024-03-02T03:04:09;57.37;;;25.63;;
19358;SDS011;9815;52.334;20.890;2024-03-02T03:06:38;50.20;;;25.33;;
19358;SDS011;9815;52.334;20.890;2024-03-02T03:09:06;51.47;;;24.87;;
19358;SDS011;9815;52.334;20.890;2024-03-02T03:11:37;55.13;;;26.27;;
19358;SDS011;9815;52.334;20.890;2024-03-02T03:14:08;52.43;;;26.13;;
19358;SDS011;9815;52.334;20.890;2024-03-02T03:16:36;49.40;;;24.47;;
19358;SDS011;9815;52.334;20.890;2024-03-02T03:19:05;48.53;;;24.60;;
19358;SDS011;9815;52.334;20.890;2024-03-02T03:21:34;50.63;;;25.47;;
19358;SDS011;9815;52.334;20.890;2024-03-02T03:24:03;50.63;;;25.50;;
19358;SDS011;9815;52.334;20.890;2024-03-02T03:26:35;51.40;;;25.47;;
19358;SDS011;9815;52.334;20.890;2024-03-02T03:29:04;56.00;;;26.33;;
19358;SDS011;9815;52.334;20.890;2024-03-02T03:31:34;49.60;;;25.47;;
19358;SDS011;9815;52.334;20.890;2024-03-02T03:34:03;52.10;;;25.80;;
19358;SDS011;9815;52.334;20.890;2024-03-02T03:36:32;51.93;;;25.80;;
19358;SDS011;9815;52.334;20.890;2024-03-02T03:39:00;50.10;;;26.07;;
19358;SDS011;9815;52.334;20.890;2024-03-02T03:41:30;51.67;;;26.17;;
19358;SDS011;9815;52.334;20.890;2024-03-02T03:43:59;50.97;;;24.43;;
19358;SDS011;9815;52.334;20.890;2024-03-02T03:46:27;53.73;;;25.90;;
19358;SDS011;9815;52.334;20.890;2024-03-02T03:48:57;51.83;;;24.97;;
19358;SDS011;9815;52.334;20.890;2024-03-02T03:51:26;52.87;;;25.17;;
19358;SDS011;9815;52.334;20.890;2024-03-02T03:53:55;49.83;;;24.43;;
19358;SDS011;9815;52.334;20.890;2024-03-02T03:56:24;49.37;;;24.67;;
19358;SDS011;9815;52.334;20.890;2024-03-02T03:58:53;53.73;;;24.13;;
19358;SDS011;9815;52.334;20.890;2024-03-02T04:01:21;52.10;;;23.90;;
19358;SDS011;9815;52.334;20.890;2024-03-02T04:03:50;49.93;;;24.70;;
19358;SDS011;9815;52.334;20.890;2024-03-02T04:06:21;49.93;;;25.10;;
19358;SDS011;9815;52.334;20.890;2024-03-02T04:08:49;50.53;;;24.87;;
19358;SDS011;9815;52.334;20.890;2024-03-02T04:11:18;46.57;;;22.23;;
19358;SDS011;9815;52.334;20.890;2024-03-02T04:13:47;49.63;;;23.73;;
19358;SDS011;9815;52.334;20.890;2024-03-02T04:16:15;51.73;;;24.67;;
19358;SDS011;9815;52.334;20.890;2024-03-02T04:18:44;51.53;;;24.33;;
19358;SDS011;9815;52.334;20.890;2024-03-02T04:21:13;49.37;;;24.43;;
19358;SDS011;9815;52.334;20.890;2024-03-02T04:23:43;47.47;;;23.97;;
19358;SDS011;9815;52.334;20.890;2024-03-02T04:26:12;45.63;;;23.33;;
19358;SDS011;9815;52.334;20.890;2024-03-02T04:28:41;53.30;;;24.13;;
19358;SDS011;9815;52.334;20.890;2024-03-02T04:31:10;54.50;;;24.80;;
19358;SDS011;9815;52.334;20.890;2024-03-02T04:33:39;56.90;;;24.20;;
19358;SDS011;9815;52.334;20.890;2024-03-02T04:36:08;49.83;;;24.37;;
19358;SDS011;9815;52.334;20.890;2024-03-02T04:38:37;52.30;;;24.43;;
19358;SDS011;9815;52.334;20.890;2024-03-02T04:41:08;57.43;;;25.17;;
19358;SDS011;9815;52.334;20.890;2024-03-02T04:43:36;56.53;;;25.37;;
19358;SDS011;9815;52.334;20.890;2024-03-02T04:46:05;54.80;;;25.43;;
19358;SDS011;9815;52.334;20.890;2024-03-02T04:48:35;56.73;;;24.63;;
19358;SDS011;9815;52.334;20.890;2024-03-02T04:51:03;47.20;;;23.73;;
19358;SDS011;9815;52.334;20.890;2024-03-02T04:53:32;50.17;;;24.80;;
19358;SDS011;9815;52.334;20.890;2024-03-02T04:56:01;53.53;;;26.07;;
19358;SDS011;9815;52.334;20.890;2024-03-02T04:59:07;53.70;;;24.67;;
19358;SDS011;9815;52.334;20.890;2024-03-02T05:01:35;51.90;;;25.60;;
19358;SDS011;9815;52.334;20.890;2024-03-02T05:04:04;55.00;;;24.50;;
19358;SDS011;9815;52.334;20.890;2024-03-02T05:06:33;54.57;;;25.50;;
19358;SDS011;9815;52.334;20.890;2024-03-02T05:09:02;54.90;;;24.97;;
19358;SDS011;9815;52.334;20.890;2024-03-02T05:11:31;53.67;;;25.37;;
19358;SDS011;9815;52.334;20.890;2024-03-02T05:14:18;53.90;;;24.57;;
19358;SDS011;9815;52.334;20.890;2024-03-02T05:16:46;54.03;;;24.27;;
19358;SDS011;9815;52.334;20.890;2024-03-02T05:19:15;54.13;;;24.63;;
19358;SDS011;9815;52.334;20.890;2024-03-02T05:21:44;53.93;;;25.03;;
19358;SDS011;9815;52.334;20.890;2024-03-02T05:24:16;51.53;;;24.40;;
19358;SDS011;9815;52.334;20.890;2024-03-02T05:26:46;58.27;;;24.93;;
19358;SDS011;9815;52.334;20.890;2024-03-02T05:29:15;53.80;;;24.90;;
19358;SDS011;9815;52.334;20.890;2024-03-02T05:31:45;52.70;;;24.13;;
19358;SDS011;9815;52.334;20.890;2024-03-02T05:34:14;46.77;;;22.83;;
19358;SDS011;9815;52.334;20.890;2024-03-02T05:36:44;52.60;;;23.93;;
19358;SDS011;9815;52.334;20.890;2024-03-02T05:39:12;53.43;;;24.63;;
19358;SDS011;9815;52.334;20.890;2024-03-02T05:41:42;55.53;;;24.90;;
19358;SDS011;9815;52.334;20.890;2024-03-02T05:44:12;52.87;;;24.53;;
19358;SDS011;9815;52.334;20.890;2024-03-02T05:46:43;47.50;;;24.60;;
19358;SDS011;9815;52.334;20.890;2024-03-02T05:49:12;57.70;;;25.03;;
19358;SDS011;9815;52.334;20.890;2024-03-02T05:51:41;49.67;;;25.03;;
19358;SDS011;9815;52.334;20.890;2024-03-02T05:54:10;59.73;;;26.57;;
19358;SDS011;9815;52.334;20.890;2024-03-02T05:56:39;52.10;;;24.03;;
19358;SDS011;9815;52.334;20.890;2024-03-02T05:59:08;62.37;;;25.07;;
19358;SDS011;9815;52.334;20.890;2024-03-02T06:01:40;56.17;;;25.00;;
19358;SDS011;9815;52.334;20.890;2024-03-02T06:04:12;49.20;;;24.17;;
19358;SDS011;9815;52.334;20.890;2024-03-02T06:06:42;57.07;;;25.33;;
19358;SDS011;9815;52.334;20.890;2024-03-02T06:09:12;55.77;;;24.70;;
19358;SDS011;9815;52.334;20.890;2024-03-02T06:11:40;58.63;;;25.00;;
19358;SDS011;9815;52.334;20.890;2024-03-02T06:14:09;55.87;;;24.10;;
19358;SDS011;9815;52.334;20.890;2024-03-02T06:16:38;50.83;;;23.73;;
19358;SDS011;9815;52.334;20.890;2024-03-02T06:19:07;54.90;;;25.07;;
19358;SDS011;9815;52.334;20.890;2024-03-02T06:21:37;56.47;;;24.80;;
19358;SDS011;9815;52.334;20.890;2024-03-02T06:24:06;55.40;;;24.37;;
19358;SDS011;9815;52.334;20.890;2024-03-02T06:26:35;50.33;;;24.30;;
19358;SDS011;9815;52.334;20.890;2024-03-02T06:29:04;56.83;;;25.83;;
19358;SDS011;9815;52.334;20.890;2024-03-02T06:31:34;58.67;;;25.20;;
19358;SDS011;9815;52.334;20.890;2024-03-02T06:34:03;54.00;;;25.87;;
19358;SDS011;9815;52.334;20.890;2024-03-02T06:36:32;51.73;;;24.63;;
19358;SDS011;9815;52.334;20.890;2024-03-02T06:39:03;55.70;;;24.23;;
19358;SDS011;9815;52.334;20.890;2024-03-02T06:41:32;54.53;;;24.47;;
19358;SDS011;9815;52.334;20.890;2024-03-02T06:44:01;50.60;;;25.37;;
19358;SDS011;9815;52.334;20.890;2024-03-02T06:46:31;51.20;;;23.90;;
19358;SDS011;9815;52.334;20.890;2024-03-02T06:49:00;51.77;;;23.73;;
19358;SDS011;9815;52.334;20.890;2024-03-02T06:51:29;55.87;;;24.17;;
19358;SDS011;9815;52.334;20.890;2024-03-02T06:53:58;49.40;;;23.67;;
19358;SDS011;9815;52.334;20.890;2024-03-02T06:56:28;47.07;;;23.07;;
19358;SDS011;9815;52.334;20.890;2024-03-02T06:58:57;54.20;;;24.23;;
19358;SDS011;9815;52.334;20.890;2024-03-02T07:01:26;52.70;;;23.57;;
19358;SDS011;9815;52.334;20.890;2024-03-02T07:03:55;49.43;;;24.17;;
19358;SDS011;9815;52.334;20.890;2024-03-02T07:06:24;49.30;;;23.33;;
19358;SDS011;9815;52.334;20.890;2024-03-02T07:08:53;57.17;;;24.50;;
19358;SDS011;9815;52.334;20.890;2024-03-02T07:11:22;52.07;;;24.17;;
19358;SDS011;9815;52.334;20.890;2024-03-02T07:13:52;51.17;;;23.70;;
19358;SDS011;9815;52.334;20.890;2024-03-02T07:16:21;48.20;;;22.13;;
19358;SDS011;9815;52.334;20.890;2024-03-02T07:18:55;49.13;;;22.80;;
19358;SDS011;9815;52.334;20.890;2024-03-02T07:21:24;51.47;;;22.67;;
19358;SDS011;9815;52.334;20.890;2024-03-02T07:23:53;48.23;;;22.77;;
19358;SDS011;9815;52.334;20.890;2024-03-02T07:26:22;56.67;;;23.70;;
19358;SDS011;9815;52.334;20.890;2024-03-02T07:28:55;50.57;;;22.60;;
19358;SDS011;9815;52.334;20.890;2024-03-02T07:31:23;50.33;;;23.00;;
19358;SDS011;9815;52.334;20.890;2024-03-02T07:33:52;50.03;;;21.37;;
19358;SDS011;9815;52.334;20.890;2024-03-02T07:36:21;49.10;;;21.83;;
19358;SDS011;9815;52.334;20.890;2024-03-02T07:38:50;46.47;;;21.17;;
19358;SDS011;9815;52.334;20.890;2024-03-02T07:41:19;47.07;;;22.17;;
19358;SDS011;9815;52.334;20.890;2024-03-02T07:43:48;42.83;;;20.43;;
19358;SDS011;9815;52.334;20.890;2024-03-02T07:46:18;49.37;;;20.53;;
19358;SDS011;9815;52.334;20.890;2024-03-02T07:48:48;46.23;;;21.23;;
19358;SDS011;9815;52.334;20.890;2024-03-02T07:51:19;44.60;;;19.87;;
19358;SDS011;9815;52.334;20.890;2024-03-02T07:53:47;41.10;;;19.93;;
19358;SDS011;9815;52.334;20.890;2024-03-02T07:56:16;40.27;;;20.43;;
19358;SDS011;9815;52.334;20.890;2024-03-02T07:58:49;43.17;;;20.17;;
19358;SDS011;9815;52.334;20.890;2024-03-02T08:01:20;41.67;;;20.03;;
19358;SDS011;9815;52.334;20.890;2024-03-02T08:03:48;45.37;;;19.63;;
19358;SDS011;9815;52.334;20.890;2024-03-02T08:06:19;48.03;;;20.53;;
19358;SDS011;9815;52.334;20.890;2024-03-02T08:08:48;43.13;;;19.03;;
19358;SDS011;9815;52.334;20.890;2024-03-02T08:11:17;40.13;;;18.83;;
19358;SDS011;9815;52.334;20.890;2024-03-02T08:13:46;47.30;;;20.20;;
19358;SDS011;9815;52.334;20.890;2024-03-02T08:16:15;48.20;;;20.60;;
19358;SDS011;9815;52.334;20.890;2024-03-02T08:18:48;37.00;;;18.90;;
19358;SDS011;9815;52.334;20.890;2024-03-02T08:21:17;44.77;;;20.27;;
19358;SDS011;9815;52.334;20.890;2024-03-02T08:23:46;40.47;;;19.20;;
19358;SDS011;9815;52.334;20.890;2024-03-02T08:26:15;43.17;;;20.10;;
19358;SDS011;9815;52.334;20.890;2024-03-02T08:28:44;43.63;;;19.40;;
19358;SDS011;9815;52.334;20.890;2024-03-02T08:31:12;45.47;;;20.23;;
19358;SDS011;9815;52.334;20.890;2024-03-02T08:33:41;40.10;;;19.43;;
19358;SDS011;9815;52.334;20.890;2024-03-02T08:36:11;37.57;;;19.30;;
19358;SDS011;9815;52.334;20.890;2024-03-02T08:38:40;42.17;;;20.43;;
19358;SDS011;9815;52.334;20.890;2024-03-02T08:41:10;44.60;;;19.57;;
19358;SDS011;9815;52.334;20.890;2024-03-02T08:43:40;45.37;;;19.70;;
19358;SDS011;9815;52.334;20.890;2024-03-02T08:46:10;42.37;;;19.27;;
19358;SDS011;9815;52.334;20.890;2024-03-02T08:48:38;42.07;;;18.83;;
19358;SDS011;9815;52.334;20.890;2024-03-02T08:51:07;49.13;;;20.63;;
19358;SDS011;9815;52.334;20.890;2024-03-02T08:53:38;46.70;;;19.57;;
19358;SDS011;9815;52.334;20.890;2024-03-02T08:56:07;37.23;;;18.80;;
19358;SDS011;9815;52.334;20.890;2024-03-02T08:58:35;48.30;;;21.17;;
19358;SDS011;9815;52.334;20.890;2024-03-02T09:01:04;50.77;;;20.23;;
19358;SDS011;9815;52.334;20.890;2024-03-02T09:03:34;47.50;;;20.17;;
19358;SDS011;9815;52.334;20.890;2024-03-02T09:06:04;42.43;;;18.53;;
19358;SDS011;9815;52.334;20.890;2024-03-02T09:08:32;41.67;;;19.07;;
19358;SDS011;9815;52.334;20.890;2024-03-02T09:11:04;50.87;;;20.23;;
19358;SDS011;9815;52.334;20.890;2024-03-02T09:13:32;45.57;;;20.07;;
19358;SDS011;9815;52.334;20.890;2024-03-02T09:16:02;44.53;;;19.23;;
19358;SDS011;9815;52.334;20.890;2024-03-02T09:18:30;44.00;;;19.70;;
19358;SDS011;9815;52.334;20.890;2024-03-02T09:20:59;42.90;;;18.77;;
19358;SDS011;9815;52.334;20.890;2024-03-02T09:23:28;46.47;;;19.07;;
19358;SDS011;9815;52.334;20.890;2024-03-02T09:25:57;42.97;;;19.50;;
19358;SDS011;9815;52.334;20.890;2024-03-02T09:28:27;45.60;;;19.77;;
19358;SDS011;9815;52.334;20.890;2024-03-02T09:30:55;42.07;;;19.93;;
19358;SDS011;9815;52.334;20.890;2024-03-02T09:33:26;46.63;;;20.10;;
19358;SDS011;9815;52.334;20.890;2024-03-02T09:35:55;39.77;;;19.87;;
19358;SDS011;9815;52.334;20.890;2024-03-02T09:38:23;39.03;;;19.70;;
19358;SDS011;9815;52.334;20.890;2024-03-02T09:40:52;39.77;;;19.03;;
19358;SDS011;9815;52.334;20.890;2024-03-02T09:43:21;40.47;;;19.00;;
19358;SDS011;9815;52.334;20.890;2024-03-02T09:45:51;45.33;;;19.03;;
19358;SDS011;9815;52.334;20.890;2024-03-02T09:48:20;42.13;;;18.63;;
19358;SDS011;9815;52.334;20.890;2024-03-02T09:50:49;46.97;;;18.57;;
19358;SDS011;9815;52.334;20.890;2024-03-02T09:53:18;44.20;;;19.50;;
19358;SDS011;9815;52.334;20.890;2024-03-02T09:55:48;38.23;;;18.73;;
19358;SDS011;9815;52.334;20.890;2024-03-02T09:58:16;39.33;;;18.80;;
19358;SDS011;9815;52.334;20.890;2024-03-02T10:00:45;44.90;;;19.83;;
19358;SDS011;9815;52.334;20.890;2024-03-02T10:03:17;43.40;;;19.40;;
19358;SDS011;9815;52.334;20.890;2024-03-02T10:05:47;38.63;;;18.90;;
19358;SDS011;9815;52.334;20.890;2024-03-02T10:08:16;43.97;;;19.27;;
19358;SDS011;9815;52.334;20.890;2024-03-02T10:10:44;42.27;;;19.33;;
19358;SDS011;9815;52.334;20.890;2024-03-02T10:13:13;44.93;;;19.70;;
19358;SDS011;9815;52.334;20.890;2024-03-02T10:15:42;38.77;;;19.63;;
19358;SDS011;9815;52.334;20.890;2024-03-02T10:18:11;43.13;;;20.00;;
19358;SDS011;9815;52.334;20.890;2024-03-02T10:20:43;39.87;;;18.80;;
19358;SDS011;9815;52.334;20.890;2024-03-02T10:23:12;42.10;;;19.80;;
19358;SDS011;9815;52.334;20.890;2024-03-02T10:25:42;41.67;;;18.37;;
19358;SDS011;9815;52.334;20.890;2024-03-02T10:28:23;43.60;;;18.57;;
19358;SDS011;9815;52.334;20.890;2024-03-02T10:30:54;38.20;;;18.20;;
19358;SDS011;9815;52.334;20.890;2024-03-02T10:33:23;40.30;;;20.27;;
19358;SDS011;9815;52.334;20.890;2024-03-02T10:35:54;41.63;;;19.40;;
19358;SDS011;9815;52.334;20.890;2024-03-02T10:38:23;42.73;;;18.97;;
19358;SDS011;9815;52.334;20.890;2024-03-02T10:40:53;44.17;;;18.47;;
19358;SDS011;9815;52.334;20.890;2024-03-02T10:43:25;39.53;;;18.80;;
19358;SDS011;9815;52.334;20.890;2024-03-02T10:45:54;36.57;;;18.13;;
19358;SDS011;9815;52.334;20.890;2024-03-02T10:48:25;37.17;;;18.90;;
19358;SDS011;9815;52.334;20.890;2024-03-02T10:50:57;42.43;;;19.27;;
19358;SDS011;9815;52.334;20.890;2024-03-02T10:53:28;36.07;;;18.37;;
19358;SDS011;9815;52.334;20.890;2024-03-02T10:55:58;44.47;;;19.63;;
19358;SDS011;9815;52.334;20.890;2024-03-02T10:58:31;39.50;;;18.13;;
19358;SDS011;9815;52.334;20.890;2024-03-02T11:01:11;39.10;;;18.87;;
19358;SDS011;9815;52.334;20.890;2024-03-02T11:04:39;43.80;;;18.63;;
19358;SDS011;9815;52.334;20.890;2024-03-02T11:07:13;41.33;;;19.47;;
19358;SDS011;9815;52.334;20.890;2024-03-02T11:09:45;39.20;;;17.80;;
19358;SDS011;9815;52.334;20.890;2024-03-02T11:12:25;36.90;;;17.53;;
19358;SDS011;9815;52.334;20.890;2024-03-02T11:15:00;34.97;;;18.13;;
19358;SDS011;9815;52.334;20.890;2024-03-02T11:17:33;42.80;;;18.40;;
19358;SDS011;9815;52.334;20.890;2024-03-02T11:20:02;41.47;;;19.30;;
19358;SDS011;9815;52.334;20.890;2024-03-02T11:22:37;43.40;;;20.27;;
19358;SDS011;9815;52.334;20.890;2024-03-02T11:25:06;45.63;;;18.70;;
19358;SDS011;9815;52.334;20.890;2024-03-02T11:28:01;44.20;;;19.17;;
19358;SDS011;9815;52.334;20.890;2024-03-02T11:30:50;45.83;;;18.73;;
19358;SDS011;9815;52.334;20.890;2024-03-02T11:33:26;40.77;;;19.50;;
19358;SDS011;9815;52.334;20.890;2024-03-02T11:35:58;40.37;;;18.10;;
19358;SDS011;9815;52.334;20.890;2024-03-02T11:38:31;42.27;;;19.97;;
19358;SDS011;9815;52.334;20.890;2024-03-02T11:41:01;37.73;;;18.67;;
19358;SDS011;9815;52.334;20.890;2024-03-02T11:43:30;41.87;;;19.40;;
19358;SDS011;9815;52.334;20.890;2024-03-02T11:46:00;39.43;;;19.07;;
19358;SDS011;9815;52.334;20.890;2024-03-02T11:48:37;37.90;;;19.93;;
19358;SDS011;9815;52.334;20.890;2024-03-02T11:51:07;41.40;;;19.53;;
19358;SDS011;9815;52.334;20.890;2024-03-02T11:53:41;37.97;;;20.17;;
19358;SDS011;9815;52.334;20.890;2024-03-02T11:56:12;36.97;;;18.93;;
19358;SDS011;9815;52.334;20.890;2024-03-02T11:58:43;42.80;;;19.90;;
19358;SDS011;9815;52.334;20.890;2024-03-02T12:01:14;40.67;;;19.30;;
19358;SDS011;9815;52.334;20.890;2024-03-02T12:03:42;43.27;;;19.73;;
19358;SDS011;9815;52.334;20.890;2024-03-02T12:06:11;38.47;;;19.53;;
19358;SDS011;9815;52.334;20.890;2024-03-02T12:08:42;45.33;;;20.73;;
19358;SDS011;9815;52.334;20.890;2024-03-02T12:11:12;41.97;;;20.70;;
19358;SDS011;9815;52.334;20.890;2024-03-02T12:13:51;37.87;;;20.97;;
19358;SDS011;9815;52.334;20.890;2024-03-02T12:16:24;41.53;;;21.47;;
19358;SDS011;9815;52.334;20.890;2024-03-02T12:18:54;45.43;;;21.03;;
19358;SDS011;9815;52.334;20.890;2024-03-02T12:21:23;41.17;;;19.23;;
19358;SDS011;9815;52.334;20.890;2024-03-02T12:23:54;44.80;;;21.13;;
19358;SDS011;9815;52.334;20.890;2024-03-02T12:26:23;42.73;;;20.30;;
19358;SDS011;9815;52.334;20.890;2024-03-02T12:28:52;42.13;;;21.30;;
19358;SDS011;9815;52.334;20.890;2024-03-02T12:31:21;41.60;;;21.77;;
19358;SDS011;9815;52.334;20.890;2024-03-02T12:33:49;47.93;;;21.87;;
19358;SDS011;9815;52.334;20.890;2024-03-02T12:36:18;43.13;;;20.50;;
19358;SDS011;9815;52.334;20.890;2024-03-02T12:38:47;41.70;;;20.37;;
19358;SDS011;9815;52.334;20.890;2024-03-02T12:41:18;43.73;;;21.20;;
19358;SDS011;9815;52.334;20.890;2024-03-02T12:43:47;39.77;;;21.10;;
19358;SDS011;9815;52.334;20.890;2024-03-02T12:46:16;38.43;;;19.93;;
19358;SDS011;9815;52.334;20.890;2024-03-02T12:48:45;40.67;;;19.80;;
19358;SDS011;9815;52.334;20.890;2024-03-02T12:51:14;40.67;;;20.57;;
19358;SDS011;9815;52.334;20.890;2024-03-02T12:53:42;46.73;;;21.93;;
19358;SDS011;9815;52.334;20.890;2024-03-02T12:56:11;42.30;;;23.47;;
19358;SDS011;9815;52.334;20.890;2024-03-02T12:58:42;46.17;;;23.23;;
19358;SDS011;9815;52.334;20.890;2024-03-02T13:01:10;46.83;;;22.93;;
19358;SDS011;9815;52.334;20.890;2024-03-02T13:03:41;46.47;;;23.13;;
19358;SDS011;9815;52.334;20.890;2024-03-02T13:06:10;44.60;;;23.47;;
19358;SDS011;9815;52.334;20.890;2024-03-02T13:08:39;46.20;;;22.87;;
19358;SDS011;9815;52.334;20.890;2024-03-02T13:11:07;51.07;;;24.00;;
19358;SDS011;9815;52.334;20.890;2024-03-02T13:13:38;48.27;;;23.13;;
19358;SDS011;9815;52.334;20.890;2024-03-02T13:16:12;45.47;;;24.50;;
19358;SDS011;9815;52.334;20.890;2024-03-02T13:18:44;48.27;;;25.30;;
19358;SDS011;9815;52.334;20.890;2024-03-02T13:21:12;46.17;;;24.57;;
19358;SDS011;9815;52.334;20.890;2024-03-02T13:23:42;50.37;;;25.00;;
19358;SDS011;9815;52.334;20.890;2024-03-02T13:26:10;48.03;;;24.90;;
19358;SDS011;9815;52.334;20.890;2024-03-02T13:28:39;44.37;;;24.33;;
19358;SDS011;9815;52.334;20.890;2024-03-02T13:31:08;50.87;;;24.50;;
19358;SDS011;9815;52.334;20.890;2024-03-02T13:33:40;48.40;;;24.93;;
19358;SDS011;9815;52.334;20.890;2024-03-02T13:36:09;52.53;;;25.57;;
19358;SDS011;9815;52.334;20.890;2024-03-02T13:38:38;51.73;;;26.73;;
19358;SDS011;9815;52.334;20.890;2024-03-02T13:41:07;55.80;;;26.50;;
19358;SDS011;9815;52.334;20.890;2024-03-02T13:43:37;52.40;;;25.47;;
19358;SDS011;9815;52.334;20.890;2024-03-02T13:46:06;45.90;;;24.87;;
19358;SDS011;9815;52.334;20.890;2024-03-02T13:48:37;52.13;;;25.73;;
19358;SDS011;9815;52.334;20.890;2024-03-02T13:51:07;50.67;;;28.07;;
19358;SDS011;9815;52.334;20.890;2024-03-02T13:53:36;50.33;;;25.07;;
19358;SDS011;9815;52.334;20.890;2024-03-02T13:56:06;47.07;;;25.33;;
19358;SDS011;9815;52.334;20.890;2024-03-02T13:58:36;49.40;;;26.70;;
19358;SDS011;9815;52.334;20.890;2024-03-02T14:01:05;49.43;;;25.70;;
19358;SDS011;9815;52.334;20.890;2024-03-02T14:03:34;53.27;;;26.97;;
19358;SDS011;9815;52.334;20.890;2024-03-02T14:06:03;52.57;;;25.17;;
19358;SDS011;9815;52.334;20.890;2024-03-02T14:08:34;53.63;;;27.87;;
19358;SDS011;9815;52.334;20.890;2024-03-02T14:11:03;53.93;;;26.77;;
19358;SDS011;9815;52.334;20.890;2024-03-02T14:13:32;47.60;;;25.57;;
19358;SDS011;9815;52.334;20.890;2024-03-02T14:16:02;60.03;;;26.60;;
19358;SDS011;9815;52.334;20.890;2024-03-02T14:18:31;54.13;;;27.33;;
19358;SDS011;9815;52.334;20.890;2024-03-02T14:21:00;50.87;;;25.80;;
19358;SDS011;9815;52.334;20.890;2024-03-02T14:23:30;49.60;;;25.97;;
19358;SDS011;9815;52.334;20.890;2024-03-02T14:26:00;58.53;;;28.17;;
19358;SDS011;9815;52.334;20.890;2024-03-02T14:28:28;48.40;;;26.13;;
19358;SDS011;9815;52.334;20.890;2024-03-02T14:31:16;49.50;;;25.43;;
19358;SDS011;9815;52.334;20.890;2024-03-02T14:33:45;50.67;;;26.17;;
19358;SDS011;9815;52.334;20.890;2024-03-02T14:36:14;50.67;;;26.07;;
19358;SDS011;9815;52.334;20.890;2024-03-02T14:38:43;54.27;;;26.30;;